createdAt,value
2023-04-23T00:00:07.297Z,54.04
2023-04-23T00:02:34.514Z,54.00
2023-04-23T00:05:06.334Z,53.96
2023-04-23T00:07:34.444Z,53.98
2023-04-23T00:10:04.074Z,53.98
2023-04-23T00:12:32.023Z,53.97
2023-04-23T00:14:59.977Z,54.00
2023-04-23T00:17:26.772Z,53.98
2023-04-23T00:19:53.541Z,54.11
2023-04-23T00:22:20.625Z,53.86
2023-04-23T00:24:47.460Z,53.80
2023-04-23T00:27:14.411Z,53.74
2023-04-23T00:29:41.324Z,53.71
2023-04-23T00:32:08.475Z,53.70
2023-04-23T00:34:35.755Z,53.73
2023-04-23T00:37:06.117Z,53.75
2023-04-23T00:39:33.059Z,54.02
2023-04-23T00:42:02.821Z,54.06
2023-04-23T00:44:29.582Z,54.11
2023-04-23T00:46:56.383Z,53.99
2023-04-23T00:49:24.199Z,53.85
2023-04-23T00:51:50.909Z,53.89
2023-04-23T00:54:17.756Z,53.98
2023-04-23T00:56:44.789Z,54.24
2023-04-23T00:59:11.642Z,54.34
2023-04-23T01:01:38.448Z,54.28
2023-04-23T01:04:05.534Z,54.17
2023-04-23T01:06:33.298Z,54.35
2023-04-23T01:09:00.130Z,54.41
2023-04-23T01:11:27.202Z,54.39
2023-04-23T01:13:53.899Z,54.26
2023-04-23T01:16:20.647Z,54.36
2023-04-23T01:18:47.596Z,54.36
2023-04-23T01:21:15.220Z,54.35
2023-04-23T01:23:42.072Z,54.38
2023-04-23T01:26:10.830Z,54.38
2023-04-23T01:28:38.104Z,54.40
2023-04-23T01:31:05.112Z,54.43
2023-04-23T01:33:32.471Z,54.49
2023-04-23T01:36:00.736Z,54.52
2023-04-23T01:38:30.929Z,54.54
2023-04-23T01:40:57.698Z,54.56
2023-04-23T01:43:25.357Z,54.60
2023-04-23T01:45:53.014Z,54.63
2023-04-23T01:48:20.166Z,54.85
2023-04-23T01:50:47.064Z,54.80
2023-04-23T01:53:13.782Z,54.83
2023-04-23T01:55:43.098Z,55.01
2023-04-23T01:58:09.808Z,55.12
2023-04-23T02:00:37.030Z,55.04
2023-04-23T02:03:04.057Z,55.01
2023-04-23T02:05:34.505Z,55.05
2023-04-23T02:08:01.624Z,55.25
2023-04-23T02:10:29.639Z,55.19
2023-04-23T02:12:58.280Z,55.18
2023-04-23T02:15:25.441Z,55.25
2023-04-23T02:17:52.440Z,55.30
2023-04-23T02:20:19.778Z,55.31
2023-04-23T02:22:47.261Z,55.42
2023-04-23T02:25:18.071Z,55.49
2023-04-23T02:27:45.240Z,55.49
2023-04-23T02:30:12.540Z,55.49
2023-04-23T02:32:39.730Z,55.62
2023-04-23T02:35:06.802Z,55.60
2023-04-23T02:37:33.941Z,55.65
2023-04-23T02:40:00.758Z,55.78
2023-04-23T02:42:27.618Z,55.64
2023-04-23T02:44:54.321Z,55.58
2023-04-23T02:47:21.052Z,55.77
2023-04-23T02:49:47.818Z,55.70
2023-04-23T02:52:14.819Z,55.77
2023-04-23T02:54:41.829Z,55.69
2023-04-23T02:57:08.997Z,56.01
2023-04-23T02:59:35.831Z,56.15
2023-04-23T03:02:02.684Z,55.94
2023-04-23T03:04:29.602Z,56.10
2023-04-23T03:06:56.702Z,55.98
2023-04-23T03:09:23.478Z,55.89
2023-04-23T03:11:50.206Z,55.93
2023-04-23T03:14:16.967Z,55.98
2023-04-23T03:16:43.788Z,55.94
2023-04-23T03:19:10.824Z,56.00
2023-04-23T03:21:37.604Z,55.98
2023-04-23T03:24:04.548Z,56.17
2023-04-23T03:26:31.395Z,56.04
2023-04-23T03:28:58.150Z,56.05
2023-04-23T03:31:24.993Z,56.13
2023-04-23T03:33:51.842Z,56.01
2023-04-23T03:36:18.591Z,56.14
2023-04-23T03:38:45.362Z,56.18
2023-04-23T03:41:12.159Z,56.21
2023-04-23T03:43:38.946Z,56.17
2023-04-23T03:46:06.684Z,56.19
2023-04-23T03:48:33.530Z,56.24
2023-04-23T03:51:00.352Z,56.30
2023-04-23T03:53:27.135Z,56.36
2023-04-23T03:55:53.918Z,56.31
2023-04-23T03:58:20.635Z,56.33
2023-04-23T04:00:47.481Z,56.34
2023-04-23T04:03:14.375Z,56.36
2023-04-23T04:05:41.405Z,56.39
2023-04-23T04:08:08.650Z,56.40
2023-04-23T04:10:35.501Z,56.39
2023-04-23T04:13:02.328Z,56.40
2023-04-23T04:15:29.103Z,56.41
2023-04-23T04:17:55.881Z,56.31
2023-04-23T04:20:22.647Z,56.37
2023-04-23T04:22:49.484Z,56.46
2023-04-23T04:25:16.258Z,56.56
2023-04-23T04:27:43.797Z,56.56
2023-04-23T04:30:10.943Z,56.44
2023-04-23T04:32:38.871Z,56.50
2023-04-23T04:35:06.824Z,56.43
2023-04-23T04:37:33.867Z,56.37
2023-04-23T04:40:01.575Z,56.30
2023-04-23T04:42:28.328Z,56.34
2023-04-23T04:44:55.118Z,56.32
2023-04-23T04:47:21.870Z,56.24
2023-04-23T04:49:48.875Z,56.21
2023-04-23T04:52:15.784Z,56.17
2023-04-23T04:54:42.819Z,56.07
2023-04-23T04:57:09.876Z,56.02
2023-04-23T04:59:36.862Z,56.12
2023-04-23T05:02:03.868Z,56.09
2023-04-23T05:04:30.835Z,55.82
2023-04-23T05:06:57.628Z,55.71
2023-04-23T05:09:25.578Z,55.57
2023-04-23T05:11:52.487Z,55.70
2023-04-23T05:14:19.473Z,55.61
2023-04-23T05:16:46.281Z,55.52
2023-04-23T05:19:12.992Z,55.24
2023-04-23T05:21:39.973Z,55.06
2023-04-23T05:24:06.781Z,55.00
2023-04-23T05:26:33.735Z,55.05
2023-04-23T05:29:00.556Z,55.24
2023-04-23T05:31:29.331Z,55.14
2023-04-23T05:33:56.327Z,55.20
2023-04-23T05:36:23.078Z,55.42
2023-04-23T05:38:49.903Z,55.56
2023-04-23T05:41:16.736Z,55.41
2023-04-23T05:43:43.565Z,55.42
2023-04-23T05:46:10.516Z,55.51
2023-04-23T05:48:37.307Z,55.49
2023-04-23T05:51:04.198Z,55.54
2023-04-23T05:53:31.002Z,55.67
2023-04-23T05:55:57.906Z,55.67
2023-04-23T05:58:24.853Z,55.50
2023-04-23T06:00:53.086Z,55.38
2023-04-23T06:03:20.274Z,55.29
2023-04-23T06:05:47.339Z,55.17
2023-04-23T06:08:14.185Z,55.10
2023-04-23T06:10:40.971Z,54.99
2023-04-23T06:13:07.791Z,54.97
2023-04-23T06:15:34.526Z,54.86
2023-04-23T06:18:01.380Z,54.78
2023-04-23T06:20:28.244Z,54.68
2023-04-23T06:22:54.957Z,54.57
2023-04-23T06:25:21.696Z,54.62
2023-04-23T06:27:48.441Z,54.66
2023-04-23T06:30:15.332Z,54.61
2023-04-23T06:32:42.247Z,54.39
2023-04-23T06:35:09.499Z,54.27
2023-04-23T06:37:36.335Z,54.21
2023-04-23T06:40:03.425Z,54.13
2023-04-23T06:42:30.174Z,54.07
2023-04-23T06:44:59.286Z,53.96
2023-04-23T06:47:26.073Z,53.90
2023-04-23T06:49:52.810Z,53.86
2023-04-23T06:52:19.566Z,53.89
2023-04-23T06:54:46.521Z,53.78
2023-04-23T06:57:13.261Z,53.62
2023-04-23T06:59:40.025Z,53.56
2023-04-23T07:02:07.417Z,53.32
2023-04-23T07:04:34.371Z,53.25
2023-04-23T07:07:01.241Z,53.31
2023-04-23T07:09:28.923Z,53.13
2023-04-23T07:11:55.776Z,53.12
2023-04-23T07:14:22.630Z,52.97
2023-04-23T07:16:49.464Z,52.87
2023-04-23T07:19:16.228Z,52.87
2023-04-23T07:21:43.125Z,52.79
2023-04-23T07:24:09.874Z,52.59
2023-04-23T07:26:36.694Z,52.54
2023-04-23T07:29:05.310Z,52.38
2023-04-23T07:31:32.152Z,52.29
2023-04-23T07:33:58.946Z,52.18
2023-04-23T07:36:25.969Z,52.16
2023-04-23T07:38:52.914Z,52.10
2023-04-23T07:41:19.676Z,51.96
2023-04-23T07:43:46.684Z,51.84
2023-04-23T07:46:13.461Z,51.74
2023-04-23T07:48:40.285Z,51.69
2023-04-23T07:51:07.052Z,51.68
2023-04-23T07:53:34.502Z,51.67
2023-04-23T07:56:01.415Z,51.70
2023-04-23T07:58:28.307Z,51.69
2023-04-23T08:00:55.166Z,51.84
2023-04-23T08:03:22.772Z,51.72
2023-04-23T08:05:49.704Z,51.54
2023-04-23T08:08:16.476Z,51.40
2023-04-23T08:10:43.265Z,51.33
2023-04-23T08:13:10.194Z,51.26
2023-04-23T08:15:37.268Z,51.11
2023-04-23T08:18:04.648Z,50.93
2023-04-23T08:20:32.548Z,50.79
2023-04-23T08:22:59.581Z,50.92
2023-04-23T08:25:26.401Z,50.52
2023-04-23T08:27:53.197Z,50.42
2023-04-23T08:30:20.370Z,50.49
2023-04-23T08:32:51.148Z,50.42
2023-04-23T08:35:18.230Z,50.16
2023-04-23T08:37:45.590Z,50.02
2023-04-23T08:40:13.321Z,49.97
2023-04-23T08:42:58.881Z,49.94
2023-04-23T08:45:26.814Z,49.88
2023-04-23T08:48:00.276Z,49.90
2023-04-23T08:50:29.541Z,49.92
2023-04-23T08:52:58.072Z,49.73
2023-04-23T08:55:25.911Z,49.68
2023-04-23T08:57:52.898Z,49.67
2023-04-23T09:00:23.365Z,49.70
2023-04-23T09:02:50.810Z,49.56
2023-04-23T09:05:18.314Z,49.49
2023-04-23T09:07:45.358Z,49.39
2023-04-23T09:10:15.370Z,49.30
2023-04-23T09:12:44.041Z,49.23
2023-04-23T09:15:11.980Z,49.18
2023-04-23T09:17:46.918Z,49.27
2023-04-23T09:20:14.859Z,49.16
2023-04-23T09:22:52.728Z,48.93
2023-04-23T09:25:23.250Z,48.80
2023-04-23T09:27:52.175Z,48.76
2023-04-23T09:30:20.009Z,48.68
2023-04-23T09:32:47.495Z,48.61
2023-04-23T09:35:16.769Z,48.55
2023-04-23T09:37:48.615Z,48.50
2023-04-23T09:40:18.414Z,48.48
2023-04-23T09:42:50.092Z,48.42
2023-04-23T09:45:17.310Z,48.38
2023-04-23T09:47:55.608Z,48.44
2023-04-23T09:50:37.263Z,48.38
2023-04-23T09:53:05.306Z,48.14
2023-04-23T09:55:40.120Z,47.72
2023-04-23T09:58:11.276Z,47.66
2023-04-23T10:00:39.915Z,47.71
2023-04-23T10:03:08.976Z,47.46
2023-04-23T10:08:14.488Z,47.03
2023-04-23T10:10:55.079Z,47.03
2023-04-23T10:13:28.017Z,47.04
2023-04-23T10:15:59.059Z,47.02
2023-04-23T10:18:33.077Z,47.21
2023-04-23T10:21:02.699Z,47.05
2023-04-23T10:23:30.682Z,46.81
2023-04-23T10:26:01.201Z,46.71
2023-04-23T10:28:32.072Z,46.75
2023-04-23T10:31:00.880Z,46.53
2023-04-23T10:33:35.414Z,46.40
2023-04-23T10:36:07.581Z,46.28
2023-04-23T10:38:37.880Z,45.81
2023-04-23T10:41:10.821Z,45.52
2023-04-23T10:43:37.750Z,45.12
2023-04-23T10:46:04.540Z,45.31
2023-04-23T10:48:51.554Z,45.35
2023-04-23T10:52:05.811Z,45.44
2023-04-23T10:54:05.417Z,45.41
2023-04-23T10:56:32.330Z,45.38
2023-04-23T10:58:59.532Z,45.46
2023-04-23T11:01:30.323Z,45.28
2023-04-23T11:03:57.357Z,45.23
2023-04-23T11:06:49.010Z,45.26
2023-04-23T11:09:30.745Z,45.19
2023-04-23T11:11:58.201Z,44.26
2023-04-23T11:14:43.674Z,44.48
2023-04-23T11:17:14.691Z,43.45
2023-04-23T11:19:43.042Z,43.72
2023-04-23T11:22:13.908Z,42.39
2023-04-23T11:24:43.059Z,42.41
2023-04-23T11:27:15.677Z,43.07
2023-04-23T11:29:44.581Z,41.88
2023-04-23T11:32:14.235Z,42.55
2023-04-23T11:34:43.886Z,41.04
2023-04-23T11:37:12.323Z,41.36
2023-04-23T11:39:44.401Z,41.76
2023-04-23T11:42:13.350Z,40.69
2023-04-23T11:44:41.560Z,41.65
2023-04-23T11:47:13.110Z,42.38
2023-04-23T11:49:44.649Z,41.21
2023-04-23T11:52:12.833Z,41.85
2023-04-23T11:54:42.836Z,40.97
2023-04-23T11:57:10.526Z,40.45
2023-04-23T11:59:37.554Z,41.37
2023-04-23T12:02:04.451Z,40.43
2023-04-23T12:04:32.258Z,40.73
2023-04-23T12:06:59.465Z,41.11
2023-04-23T12:09:28.039Z,41.43
2023-04-23T12:11:56.992Z,41.65
2023-04-23T12:14:29.399Z,41.36
2023-04-23T12:16:57.137Z,41.79
2023-04-23T12:19:31.568Z,41.66
2023-04-23T12:22:01.241Z,41.02
2023-04-23T12:24:45.940Z,41.48
2023-04-23T12:27:16.044Z,41.37
2023-04-23T12:29:43.272Z,41.52
2023-04-23T12:32:13.079Z,41.44
2023-04-23T12:34:53.084Z,41.17
2023-04-23T12:37:24.524Z,41.14
2023-04-23T12:39:53.050Z,41.38
2023-04-23T12:42:19.811Z,41.19
2023-04-23T12:44:47.665Z,41.10
2023-04-23T12:47:19.682Z,40.81
2023-04-23T12:49:49.584Z,40.86
2023-04-23T12:52:16.636Z,40.49
2023-04-23T12:54:44.925Z,40.86
2023-04-23T12:57:13.036Z,40.66
2023-04-23T12:59:40.126Z,40.54
2023-04-23T13:02:07.364Z,40.73
2023-04-23T13:04:36.423Z,40.11
2023-04-23T13:07:04.368Z,40.21
2023-04-23T13:09:31.341Z,40.25
2023-04-23T13:12:00.395Z,40.16
2023-04-23T13:14:28.172Z,40.33
2023-04-23T13:16:55.077Z,40.24
2023-04-23T13:19:21.889Z,40.17
2023-04-23T13:21:48.605Z,39.97
2023-04-23T13:24:15.680Z,38.76
2023-04-23T13:26:42.603Z,39.30
2023-04-23T13:29:09.386Z,39.55
2023-04-23T13:31:36.196Z,39.87
2023-04-23T13:34:03.362Z,39.92
2023-04-23T13:36:30.312Z,40.16
2023-04-23T13:38:57.307Z,39.67
2023-04-23T13:41:24.061Z,39.48
2023-04-23T13:43:51.015Z,39.78
2023-04-23T13:46:17.922Z,39.52
2023-04-23T13:48:44.775Z,39.56
2023-04-23T13:51:26.024Z,39.54
2023-04-23T13:53:59.257Z,39.53
2023-04-23T13:56:30.425Z,39.60
2023-04-23T13:59:18.460Z,39.47
2023-04-23T14:01:49.689Z,39.68
2023-04-23T14:04:18.557Z,39.36
2023-04-23T14:06:45.491Z,39.50
2023-04-23T14:09:12.416Z,38.78
2023-04-23T14:11:40.662Z,38.96
2023-04-23T14:14:07.938Z,38.96
2023-04-23T14:16:35.595Z,39.34
2023-04-23T14:19:02.521Z,39.36
2023-04-23T14:21:29.345Z,38.84
2023-04-23T14:24:03.122Z,39.11
2023-04-23T14:29:08.668Z,38.95
2023-04-23T14:31:38.130Z,38.55
2023-04-23T14:34:06.543Z,38.81
2023-04-23T14:36:33.390Z,38.82
2023-04-23T14:39:05.296Z,38.76
2023-04-23T14:41:33.073Z,38.74
2023-04-23T14:44:01.212Z,38.83
2023-04-23T14:46:28.729Z,39.11
2023-04-23T14:48:55.777Z,39.17
2023-04-23T14:51:23.223Z,39.13
2023-04-23T14:53:51.449Z,39.15
2023-04-23T14:56:18.251Z,39.18
2023-04-23T14:58:45.404Z,39.45
2023-04-23T15:01:12.432Z,39.19
2023-04-23T15:03:39.469Z,39.25
2023-04-23T15:06:07.705Z,39.18
2023-04-23T15:08:34.548Z,39.33
2023-04-23T15:11:01.375Z,39.29
2023-04-23T15:13:50.203Z,39.31
2023-04-23T15:16:40.006Z,39.24
2023-04-23T15:19:12.557Z,39.33
2023-04-23T15:21:39.625Z,39.37
2023-04-23T15:24:07.938Z,39.10
2023-04-23T15:26:34.996Z,39.17
2023-04-23T15:29:01.896Z,39.32
2023-04-23T15:31:28.725Z,39.09
2023-04-23T15:33:56.733Z,38.80
2023-04-23T15:36:23.460Z,39.08
2023-04-23T15:38:50.211Z,38.97
2023-04-23T15:41:17.145Z,38.93
2023-04-23T15:43:43.958Z,38.73
2023-04-23T15:46:10.733Z,38.82
2023-04-23T15:48:37.558Z,38.81
2023-04-23T15:51:04.485Z,38.76
2023-04-23T15:53:31.600Z,38.95
2023-04-23T15:55:58.914Z,38.93
2023-04-23T15:58:25.732Z,38.88
2023-04-23T16:00:52.500Z,39.10
2023-04-23T16:03:19.627Z,38.99
2023-04-23T16:05:48.225Z,38.96
2023-04-23T16:08:16.390Z,39.03
2023-04-23T16:10:43.331Z,39.28
2023-04-23T16:13:10.246Z,39.20
2023-04-23T16:15:36.982Z,39.21
2023-04-23T16:18:04.142Z,39.16
2023-04-23T16:20:31.011Z,39.19
2023-04-23T16:22:57.851Z,39.23
2023-04-23T16:25:24.757Z,39.18
2023-04-23T16:27:51.758Z,39.20
2023-04-23T16:30:18.936Z,39.11
2023-04-23T16:32:46.190Z,39.30
2023-04-23T16:35:13.464Z,39.65
2023-04-23T16:37:40.923Z,39.77
2023-04-23T16:40:08.335Z,39.77
2023-04-23T16:42:35.424Z,39.82
2023-04-23T16:45:03.048Z,39.94
2023-04-23T16:47:30.412Z,40.04
2023-04-23T16:49:58.089Z,40.16
2023-04-23T16:52:24.991Z,40.30
2023-04-23T16:54:52.248Z,40.26
2023-04-23T16:57:19.405Z,40.33
2023-04-23T16:59:46.677Z,40.46
2023-04-23T17:02:13.635Z,40.70
2023-04-23T17:04:40.977Z,40.86
2023-04-23T17:07:08.397Z,40.92
2023-04-23T17:09:35.251Z,41.04
2023-04-23T17:12:02.523Z,41.06
2023-04-23T17:14:29.765Z,41.21
2023-04-23T17:16:56.836Z,41.37
2023-04-23T17:19:24.214Z,41.55
2023-04-23T17:21:51.690Z,41.65
2023-04-23T17:24:19.862Z,41.72
2023-04-23T17:26:48.049Z,41.82
2023-04-23T17:29:15.595Z,41.80
2023-04-23T17:31:43.069Z,41.91
2023-04-23T17:34:11.948Z,42.16
2023-04-23T17:36:39.153Z,42.27
2023-04-23T17:39:06.327Z,42.35
2023-04-23T17:41:34.447Z,42.32
2023-04-23T17:44:02.057Z,42.41
2023-04-23T17:46:28.949Z,42.34
2023-04-23T17:48:56.570Z,42.59
2023-04-23T17:51:23.859Z,42.83
2023-04-23T17:53:52.393Z,43.09
2023-04-23T17:56:20.369Z,43.06
2023-04-23T17:58:48.580Z,43.47
2023-04-23T18:01:18.034Z,43.52
2023-04-23T18:03:46.338Z,43.36
2023-04-23T18:06:13.731Z,43.69
2023-04-23T18:08:42.634Z,43.83
2023-04-23T18:11:10.287Z,43.97
2023-04-23T18:13:39.266Z,44.01
2023-04-23T18:16:08.005Z,44.22
2023-04-23T18:18:35.645Z,44.17
2023-04-23T18:21:02.827Z,44.39
2023-04-23T18:23:31.725Z,44.47
2023-04-23T18:26:02.012Z,44.38
2023-04-23T18:28:30.066Z,44.43
2023-04-23T18:31:02.918Z,44.54
2023-04-23T18:33:32.765Z,44.67
2023-04-23T18:36:05.787Z,44.75
2023-04-23T18:38:45.402Z,44.72
2023-04-23T18:41:12.386Z,44.70
2023-04-23T18:43:39.266Z,44.76
2023-04-23T18:46:06.885Z,44.92
2023-04-23T18:48:34.384Z,44.93
2023-04-23T18:51:13.443Z,45.09
2023-04-23T18:53:42.256Z,45.08
2023-04-23T18:56:09.419Z,45.02
2023-04-23T18:58:36.577Z,45.08
2023-04-23T19:01:03.867Z,45.07
2023-04-23T19:03:32.036Z,45.24
2023-04-23T19:05:59.808Z,45.22
2023-04-23T19:08:32.133Z,45.38
2023-04-23T19:10:59.717Z,45.30
2023-04-23T19:13:26.956Z,45.22
2023-04-23T19:15:54.647Z,45.29
2023-04-23T19:18:22.487Z,45.35
2023-04-23T19:20:50.070Z,45.42
2023-04-23T19:23:17.740Z,45.41
2023-04-23T19:25:45.408Z,45.40
2023-04-23T19:28:13.085Z,45.49
2023-04-23T19:30:40.269Z,45.59
2023-04-23T19:33:07.781Z,45.61
2023-04-23T19:35:36.378Z,45.49
2023-04-23T19:38:05.388Z,45.75
2023-04-23T19:40:32.858Z,45.99
2023-04-23T19:43:00.403Z,46.27
2023-04-23T19:45:31.891Z,46.37
2023-04-23T19:47:59.723Z,46.61
2023-04-23T19:50:27.877Z,46.75
2023-04-23T19:52:55.490Z,46.82
2023-04-23T19:55:27.550Z,46.98
2023-04-23T19:57:55.399Z,46.98
2023-04-23T20:00:24.153Z,47.09
2023-04-23T20:02:57.089Z,47.05
2023-04-23T20:05:24.270Z,47.12
2023-04-23T20:07:51.463Z,46.93
2023-04-23T20:10:18.730Z,47.04
2023-04-23T20:12:46.225Z,46.95
2023-04-23T20:15:14.282Z,47.09
2023-04-23T20:17:41.633Z,47.31
2023-04-23T20:20:10.712Z,47.20
2023-04-23T20:22:37.590Z,47.13
2023-04-23T20:25:05.359Z,47.09
2023-04-23T20:27:32.694Z,47.12
2023-04-23T20:29:59.957Z,47.12
2023-04-23T20:32:26.895Z,47.33
2023-04-23T20:34:54.156Z,47.43
2023-04-23T20:37:22.049Z,47.31
2023-04-23T20:39:49.965Z,47.37
2023-04-23T20:42:17.169Z,47.43
2023-04-23T20:44:45.519Z,47.50
2023-04-23T20:47:12.897Z,47.53
2023-04-23T20:49:40.442Z,47.56
2023-04-23T20:52:07.555Z,47.55
2023-04-23T20:54:34.984Z,47.70
2023-04-23T20:57:02.998Z,47.86
2023-04-23T20:59:29.806Z,47.88
2023-04-23T21:01:56.678Z,47.78
2023-04-23T21:04:23.777Z,47.76
2023-04-23T21:06:51.182Z,47.80
2023-04-23T21:09:18.039Z,47.92
2023-04-23T21:11:44.870Z,47.96
2023-04-23T21:14:11.640Z,48.01
2023-04-23T21:16:38.489Z,48.07
2023-04-23T21:19:05.832Z,48.07
2023-04-23T21:21:33.073Z,48.20
2023-04-23T21:24:00.862Z,48.28
2023-04-23T21:26:29.628Z,48.37
2023-04-23T21:28:56.850Z,48.59
2023-04-23T21:31:43.130Z,48.83
2023-04-23T21:34:09.958Z,48.87
2023-04-23T21:36:36.727Z,48.92
2023-04-23T21:39:04.136Z,49.10
2023-04-23T21:41:31.147Z,49.22
2023-04-23T21:43:57.953Z,49.42
2023-04-23T21:46:25.158Z,49.52
2023-04-23T21:48:53.765Z,49.66
2023-04-23T21:51:22.437Z,49.72
2023-04-23T21:53:49.338Z,49.87
2023-04-23T21:56:16.445Z,49.88
2023-04-23T21:58:46.257Z,49.98
2023-04-23T22:01:13.011Z,50.00
2023-04-23T22:03:43.475Z,50.07
2023-04-23T22:06:10.270Z,50.19
2023-04-23T22:08:40.509Z,50.31
2023-04-23T22:11:08.325Z,50.38
2023-04-23T22:13:36.069Z,50.40
2023-04-23T22:16:06.534Z,50.63
2023-04-23T22:18:38.361Z,50.68
2023-04-23T22:21:05.294Z,50.77
2023-04-23T22:23:32.260Z,50.86
2023-04-23T22:25:59.239Z,50.77
2023-04-23T22:28:26.030Z,50.81
2023-04-23T22:30:53.460Z,50.83
2023-04-23T22:33:21.021Z,50.77
2023-04-23T22:35:47.788Z,50.89
2023-04-23T22:38:14.575Z,50.94
2023-04-23T22:40:41.383Z,51.00
2023-04-23T22:43:08.160Z,51.12
2023-04-23T22:45:35.053Z,51.36
2023-04-23T22:48:01.895Z,51.41
2023-04-23T22:50:30.546Z,51.47
2023-04-23T22:52:57.563Z,51.57
2023-04-23T22:55:24.381Z,51.60
2023-04-23T22:57:51.158Z,51.79
2023-04-23T23:00:17.962Z,51.69
2023-04-23T23:02:44.788Z,51.97
2023-04-23T23:05:11.542Z,52.06
2023-04-23T23:07:38.640Z,52.16
2023-04-23T23:10:08.840Z,52.13
2023-04-23T23:12:36.543Z,52.37
2023-04-23T23:15:03.792Z,52.38
2023-04-23T23:17:30.548Z,52.47
2023-04-23T23:19:57.334Z,52.48
2023-04-23T23:22:24.123Z,52.50
2023-04-23T23:24:50.883Z,52.63
2023-04-23T23:27:17.592Z,52.55
2023-04-23T23:29:44.529Z,52.57
2023-04-23T23:32:11.465Z,52.60
2023-04-23T23:34:38.273Z,52.74
2023-04-23T23:37:05.085Z,52.74
2023-04-23T23:39:31.858Z,52.80
2023-04-23T23:41:59.857Z,52.88
2023-04-23T23:44:26.761Z,52.92
2023-04-23T23:46:53.610Z,53.13
2023-04-23T23:49:20.824Z,53.06
2023-04-23T23:51:47.721Z,53.04
2023-04-23T23:54:14.675Z,52.92
2023-04-23T23:56:41.618Z,52.93
2023-04-23T23:59:08.450Z,52.96
